createdAt,value
2019-05-28T00:00:21.628Z,13.42
2019-05-28T00:01:20.619Z,13.38
2019-05-28T00:02:20.607Z,13.38
2019-05-28T00:03:20.595Z,13.42
2019-05-28T00:04:20.578Z,13.45
2019-05-28T00:05:20.619Z,13.36
2019-05-28T00:06:20.564Z,13.30
2019-05-28T00:07:20.564Z,13.38
2019-05-28T00:08:20.551Z,13.30
2019-05-28T00:09:20.550Z,13.30
2019-05-28T00:10:20.534Z,13.23
2019-05-28T00:11:20.510Z,13.23
2019-05-28T00:12:20.499Z,13.19
2019-05-28T00:13:20.492Z,13.11
2019-05-28T00:14:20.477Z,13.11
2019-05-28T00:15:20.478Z,13.12
2019-05-28T00:16:20.450Z,13.10
2019-05-28T00:17:20.440Z,13.11
2019-05-28T00:18:20.442Z,13.07
2019-05-28T00:19:20.427Z,13.04
2019-05-28T00:20:20.544Z,12.95
2019-05-28T00:21:20.419Z,13.04
2019-05-28T00:22:20.398Z,13.01
2019-05-28T00:23:20.371Z,12.93
2019-05-28T00:24:20.370Z,12.90
2019-05-28T00:25:20.385Z,12.85
2019-05-28T00:26:20.340Z,12.83
2019-05-28T00:27:20.352Z,12.82
2019-05-28T00:28:20.314Z,12.86
2019-05-28T00:29:20.302Z,12.82
2019-05-28T00:30:21.094Z,12.83
2019-05-28T00:31:20.305Z,12.68
2019-05-28T00:32:20.279Z,12.77
2019-05-28T00:33:20.274Z,12.79
2019-05-28T00:34:20.260Z,12.74
2019-05-28T00:35:20.271Z,12.72
2019-05-28T00:36:20.229Z,12.67
2019-05-28T00:37:20.220Z,12.72
2019-05-28T00:38:20.214Z,12.68
2019-05-28T00:39:20.200Z,12.70
2019-05-28T00:40:20.192Z,12.70
2019-05-28T00:41:20.225Z,12.68
2019-05-28T00:42:20.172Z,12.68
2019-05-28T00:43:20.159Z,12.67
2019-05-28T00:44:20.148Z,12.64
2019-05-28T00:45:20.137Z,12.68
2019-05-28T00:46:20.147Z,12.60
2019-05-28T00:47:20.114Z,12.62
2019-05-28T00:48:20.102Z,12.59
2019-05-28T00:49:20.096Z,12.65
2019-05-28T00:50:20.079Z,12.53
2019-05-28T00:51:20.111Z,12.56
2019-05-28T00:52:20.065Z,12.54
2019-05-28T00:53:20.048Z,12.56
2019-05-28T00:54:20.052Z,12.53
2019-05-28T00:55:20.041Z,12.57
2019-05-28T00:56:20.187Z,12.57
2019-05-28T00:57:20.007Z,12.49
2019-05-28T00:58:19.997Z,12.50
2019-05-28T00:59:19.983Z,12.42
2019-05-28T01:00:36.243Z,12.41
2019-05-28T01:01:20.989Z,12.38
2019-05-28T01:02:19.951Z,12.45
2019-05-28T01:03:19.959Z,12.41
2019-05-28T01:04:19.971Z,12.37
2019-05-28T01:05:19.918Z,12.42
2019-05-28T01:06:19.927Z,12.35
2019-05-28T01:07:19.892Z,12.32
2019-05-28T01:08:19.891Z,12.39
2019-05-28T01:09:19.876Z,12.24
2019-05-28T01:10:19.870Z,12.28
2019-05-28T01:11:19.876Z,12.31
2019-05-28T01:12:19.843Z,12.23
2019-05-28T01:13:19.832Z,12.29
2019-05-28T01:14:19.818Z,12.29
2019-05-28T01:15:19.815Z,12.19
2019-05-28T01:16:19.821Z,12.16
2019-05-28T01:17:19.812Z,12.13
2019-05-28T01:18:19.784Z,12.09
2019-05-28T01:19:19.764Z,12.13
2019-05-28T01:20:19.758Z,12.13
2019-05-28T01:21:19.759Z,12.09
2019-05-28T01:22:19.730Z,11.99
2019-05-28T01:23:19.730Z,12.10
2019-05-28T01:24:19.717Z,11.98
2019-05-28T01:25:19.708Z,11.88
2019-05-28T01:26:19.715Z,11.91
2019-05-28T01:27:19.695Z,11.88
2019-05-28T01:28:19.703Z,11.85
2019-05-28T01:29:19.660Z,11.91
2019-05-28T01:30:19.657Z,11.90
2019-05-28T01:31:19.655Z,11.86
2019-05-28T01:32:19.628Z,11.85
2019-05-28T01:33:19.614Z,11.83
2019-05-28T01:34:19.601Z,11.88
2019-05-28T01:35:19.598Z,11.80
2019-05-28T01:36:19.618Z,11.86
2019-05-28T01:37:19.573Z,11.88
2019-05-28T01:38:19.566Z,11.82
2019-05-28T01:39:19.548Z,11.76
2019-05-28T01:40:23.023Z,11.73
2019-05-28T01:41:19.531Z,11.65
2019-05-28T01:42:19.529Z,11.73
2019-05-28T01:43:19.512Z,11.70
2019-05-28T01:44:19.505Z,11.72
2019-05-28T01:45:19.483Z,11.64
2019-05-28T01:46:19.471Z,11.49
2019-05-28T01:47:19.490Z,11.47
2019-05-28T01:48:19.456Z,11.57
2019-05-28T01:49:19.450Z,11.52
2019-05-28T01:50:19.454Z,11.47
2019-05-28T01:51:19.417Z,11.51
2019-05-28T01:52:19.447Z,11.43
2019-05-28T01:53:19.396Z,11.44
2019-05-28T01:54:19.389Z,11.47
2019-05-28T01:55:19.383Z,11.46
2019-05-28T01:56:19.372Z,11.44
2019-05-28T01:57:19.377Z,11.39
2019-05-28T01:58:19.351Z,11.43
2019-05-28T01:59:19.330Z,11.46
2019-05-28T02:00:19.336Z,11.46
2019-05-28T02:01:19.316Z,11.46
2019-05-28T02:02:19.323Z,11.49
2019-05-28T02:03:19.299Z,11.51
2019-05-28T02:04:19.277Z,11.54
2019-05-28T02:05:19.267Z,11.43
2019-05-28T02:06:19.256Z,11.54
2019-05-28T02:07:19.264Z,11.52
2019-05-28T02:08:19.239Z,11.52
2019-05-28T02:09:19.229Z,11.58
2019-05-28T02:10:19.227Z,11.47
2019-05-28T02:11:19.200Z,11.62
2019-05-28T02:12:19.205Z,11.54
2019-05-28T02:13:19.203Z,11.58
2019-05-28T02:14:19.175Z,11.52
2019-05-28T02:15:19.164Z,11.47
2019-05-28T02:16:19.149Z,11.51
2019-05-28T02:17:19.151Z,11.58
2019-05-28T02:18:19.123Z,11.51
2019-05-28T02:19:19.120Z,11.52
2019-05-28T02:20:19.108Z,11.55
2019-05-28T02:21:19.096Z,11.51
2019-05-28T02:22:19.122Z,11.54
2019-05-28T02:23:19.069Z,11.61
2019-05-28T02:24:19.067Z,11.61
2019-05-28T02:25:19.051Z,11.67
2019-05-28T02:26:19.051Z,11.61
2019-05-28T02:27:19.042Z,11.73
2019-05-28T02:28:19.034Z,11.69
2019-05-28T02:29:19.010Z,11.70
2019-05-28T02:30:19.009Z,11.70
2019-05-28T02:31:27.430Z,11.67
2019-05-28T02:32:19.971Z,11.61
2019-05-28T02:33:18.985Z,11.64
2019-05-28T02:34:18.972Z,11.65
2019-05-28T02:35:18.942Z,11.62
2019-05-28T02:36:18.992Z,11.62
2019-05-28T02:37:18.927Z,11.61
2019-05-28T02:38:18.919Z,11.65
2019-05-28T02:39:18.911Z,11.62
2019-05-28T02:40:18.898Z,11.72
2019-05-28T02:41:18.878Z,11.61
2019-05-28T02:42:18.900Z,11.72
2019-05-28T02:43:18.874Z,11.64
2019-05-28T02:44:18.859Z,11.75
2019-05-28T02:45:18.836Z,11.76
2019-05-28T02:46:18.834Z,11.73
2019-05-28T02:47:18.812Z,11.90
2019-05-28T02:48:18.818Z,11.78
2019-05-28T02:49:18.808Z,11.79
2019-05-28T02:50:18.773Z,11.90
2019-05-28T02:51:18.768Z,11.86
2019-05-28T02:52:18.761Z,11.95
2019-05-28T02:53:18.761Z,11.90
2019-05-28T02:54:18.737Z,11.96
2019-05-28T02:55:18.718Z,11.95
2019-05-28T02:56:18.710Z,11.99
2019-05-28T02:57:18.702Z,11.96
2019-05-28T02:58:18.836Z,11.98
2019-05-28T02:59:18.702Z,11.98
2019-05-28T03:00:18.677Z,11.99
2019-05-28T03:01:18.657Z,11.96
2019-05-28T03:02:18.651Z,12.05
2019-05-28T03:03:18.632Z,12.16
2019-05-28T03:04:18.641Z,12.12
2019-05-28T03:05:18.620Z,12.09
2019-05-28T03:06:18.608Z,12.13
2019-05-28T03:07:18.585Z,12.13
2019-05-28T03:08:18.587Z,12.10
2019-05-28T03:09:18.586Z,12.09
2019-05-28T03:10:18.556Z,12.14
2019-05-28T03:11:18.553Z,12.12
2019-05-28T03:12:18.540Z,12.16
2019-05-28T03:13:18.527Z,12.13
2019-05-28T03:14:18.545Z,12.07
2019-05-28T03:15:18.502Z,12.14
2019-05-28T03:16:18.491Z,12.09
2019-05-28T03:17:18.480Z,12.12
2019-05-28T03:18:18.467Z,12.10
2019-05-28T03:19:18.481Z,12.13
2019-05-28T03:20:18.454Z,12.09
2019-05-28T03:21:18.440Z,12.19
2019-05-28T03:22:18.426Z,12.10
2019-05-28T03:23:18.420Z,12.17
2019-05-28T03:24:18.426Z,12.09
2019-05-28T03:25:18.409Z,12.09
2019-05-28T03:26:18.395Z,12.12
2019-05-28T03:27:18.372Z,12.02
2019-05-28T03:28:18.358Z,12.10
2019-05-28T03:29:18.364Z,12.10
2019-05-28T03:30:18.339Z,12.04
2019-05-28T03:31:18.336Z,12.13
2019-05-28T03:32:18.335Z,12.10
2019-05-28T03:33:18.428Z,12.12
2019-05-28T03:34:18.326Z,12.14
2019-05-28T03:35:18.288Z,12.10
2019-05-28T03:36:18.274Z,12.14
2019-05-28T03:37:18.265Z,12.10
2019-05-28T03:38:18.264Z,12.12
2019-05-28T03:39:18.252Z,12.13
2019-05-28T03:40:18.235Z,12.07
2019-05-28T03:41:18.220Z,12.12
2019-05-28T03:42:18.204Z,12.02
2019-05-28T03:43:18.201Z,12.02
2019-05-28T03:44:18.202Z,12.09
2019-05-28T03:45:18.198Z,12.09
2019-05-28T03:46:18.171Z,12.02
2019-05-28T03:47:18.155Z,12.14
2019-05-28T03:48:18.143Z,12.10
2019-05-28T03:49:18.149Z,12.10
2019-05-28T03:50:18.124Z,12.01
2019-05-28T03:51:18.113Z,12.01
2019-05-28T03:52:18.099Z,12.02
2019-05-28T03:53:18.091Z,12.04
2019-05-28T03:54:18.087Z,11.96
2019-05-28T03:55:18.074Z,11.96
2019-05-28T03:56:18.055Z,12.02
2019-05-28T03:57:18.052Z,12.09
2019-05-28T03:58:18.041Z,12.12
2019-05-28T03:59:18.042Z,12.07
2019-05-28T04:00:18.026Z,12.10
2019-05-28T04:01:17.999Z,12.16
2019-05-28T04:02:23.541Z,12.10
2019-05-28T04:03:18.989Z,12.14
2019-05-28T04:04:17.967Z,12.19
2019-05-28T04:05:17.975Z,12.12
2019-05-28T04:06:17.949Z,12.09
2019-05-28T04:07:17.931Z,12.17
2019-05-28T04:08:17.947Z,12.13
2019-05-28T04:09:17.915Z,12.19
2019-05-28T04:10:17.920Z,12.12
2019-05-28T04:11:17.894Z,12.13
2019-05-28T04:12:17.888Z,12.12
2019-05-28T04:13:17.871Z,12.14
2019-05-28T04:14:17.856Z,12.23
2019-05-28T04:15:17.872Z,12.28
2019-05-28T04:16:17.849Z,12.16
2019-05-28T04:17:17.829Z,12.21
2019-05-28T04:18:17.824Z,12.32
2019-05-28T04:19:17.802Z,12.29
2019-05-28T04:20:17.811Z,12.27
2019-05-28T04:21:17.797Z,12.23
2019-05-28T04:22:17.769Z,12.20
2019-05-28T04:23:17.770Z,12.19
2019-05-28T04:24:17.762Z,12.21
2019-05-28T04:25:17.771Z,12.20
2019-05-28T04:26:17.728Z,12.29
2019-05-28T04:27:17.725Z,12.31
2019-05-28T04:28:17.709Z,12.24
2019-05-28T04:29:17.700Z,12.29
2019-05-28T04:30:17.707Z,12.34
2019-05-28T04:31:17.673Z,12.31
2019-05-28T04:32:17.665Z,12.23
2019-05-28T04:33:17.656Z,12.27
2019-05-28T04:34:17.649Z,12.27
2019-05-28T04:35:17.652Z,12.31
2019-05-28T04:36:17.627Z,12.29
2019-05-28T04:37:17.613Z,12.37
2019-05-28T04:38:17.611Z,12.27
2019-05-28T04:39:17.586Z,12.38
2019-05-28T04:40:17.742Z,12.47
2019-05-28T04:41:17.573Z,12.47
2019-05-28T04:42:17.565Z,12.42
2019-05-28T04:43:17.543Z,12.37
2019-05-28T04:44:17.563Z,12.39
2019-05-28T04:45:17.546Z,12.39
2019-05-28T04:46:17.513Z,12.54
2019-05-28T04:47:17.511Z,12.52
2019-05-28T04:48:17.495Z,12.53
2019-05-28T04:49:17.484Z,12.47
2019-05-28T04:50:17.488Z,12.56
2019-05-28T04:51:17.463Z,12.52
2019-05-28T04:52:17.452Z,12.54
2019-05-28T04:53:17.445Z,12.60
2019-05-28T04:54:17.424Z,12.59
2019-05-28T04:55:17.587Z,12.59
2019-05-28T04:56:17.406Z,12.64
2019-05-28T04:57:17.403Z,12.60
2019-05-28T04:58:17.382Z,12.67
2019-05-28T04:59:17.389Z,12.62
2019-05-28T05:00:17.380Z,12.62
2019-05-28T05:01:17.355Z,12.71
2019-05-28T05:02:17.352Z,12.67
2019-05-28T05:03:17.324Z,12.65
2019-05-28T05:04:17.338Z,12.74
2019-05-28T05:05:17.344Z,12.68
2019-05-28T05:06:17.313Z,12.70
2019-05-28T05:07:17.349Z,12.74
2019-05-28T05:08:17.283Z,12.72
2019-05-28T05:09:17.263Z,12.65
2019-05-28T05:10:19.174Z,12.78
2019-05-28T05:11:17.281Z,12.79
2019-05-28T05:12:17.234Z,12.75
2019-05-28T05:13:17.223Z,12.78
2019-05-28T05:14:17.272Z,12.79
2019-05-28T05:15:17.203Z,12.95
2019-05-28T05:16:17.215Z,12.93
2019-05-28T05:17:17.178Z,12.96
2019-05-28T05:18:17.197Z,13.00
2019-05-28T05:19:17.152Z,13.00
2019-05-28T05:20:17.160Z,13.07
2019-05-28T05:21:17.150Z,13.03
2019-05-28T05:22:17.133Z,13.07
2019-05-28T05:23:17.161Z,13.03
2019-05-28T05:24:17.106Z,13.14
2019-05-28T05:25:17.109Z,13.25
2019-05-28T05:26:17.099Z,13.28
2019-05-28T05:27:17.079Z,13.33
2019-05-28T05:28:17.057Z,13.32
2019-05-28T05:29:17.049Z,13.46
2019-05-28T05:30:17.058Z,13.48
2019-05-28T05:31:17.059Z,13.44
2019-05-28T05:32:17.019Z,13.39
2019-05-28T05:33:20.374Z,13.29
2019-05-28T05:34:16.988Z,13.39
2019-05-28T05:35:16.986Z,13.48
2019-05-28T05:36:16.989Z,13.52
2019-05-28T05:37:16.966Z,13.57
2019-05-28T05:38:16.956Z,13.66
2019-05-28T05:39:16.934Z,13.69
2019-05-28T05:40:16.927Z,13.82
2019-05-28T05:41:16.937Z,13.82
2019-05-28T05:42:16.902Z,13.96
2019-05-28T05:43:16.921Z,14.03
2019-05-28T05:44:16.888Z,14.03
2019-05-28T05:45:16.875Z,14.17
2019-05-28T05:46:16.874Z,14.20
2019-05-28T05:47:16.861Z,14.21
2019-05-28T05:48:16.843Z,14.36
2019-05-28T05:49:16.837Z,14.40
2019-05-28T05:50:16.827Z,14.50
2019-05-28T05:51:16.823Z,14.47
2019-05-28T05:52:16.796Z,14.60
2019-05-28T05:53:16.809Z,14.65
2019-05-28T05:54:16.772Z,14.65
2019-05-28T05:55:16.772Z,14.75
2019-05-28T05:56:16.783Z,14.89
2019-05-28T05:57:16.749Z,14.84
2019-05-28T05:58:16.737Z,14.88
2019-05-28T05:59:16.721Z,14.96
2019-05-28T06:00:16.712Z,15.03
2019-05-28T06:01:16.750Z,15.19
2019-05-28T06:02:16.702Z,15.21
2019-05-28T06:03:16.685Z,15.29
2019-05-28T06:04:16.670Z,15.31
2019-05-28T06:05:16.657Z,15.41
2019-05-28T06:06:16.675Z,15.60
2019-05-28T06:07:16.654Z,15.62
2019-05-28T06:08:16.676Z,15.75
2019-05-28T06:09:16.616Z,15.87
2019-05-28T06:10:16.606Z,15.82
2019-05-28T06:11:16.587Z,15.90
2019-05-28T06:12:16.597Z,15.90
2019-05-28T06:13:16.573Z,15.92
2019-05-28T06:14:16.565Z,15.67
2019-05-28T06:15:16.555Z,15.50
2019-05-28T06:16:16.554Z,15.71
2019-05-28T06:17:16.553Z,15.80
2019-05-28T06:18:16.514Z,15.90
2019-05-28T06:19:16.523Z,15.92
2019-05-28T06:20:16.503Z,16.08
2019-05-28T06:21:18.927Z,16.28
2019-05-28T06:22:16.501Z,16.46
2019-05-28T06:23:16.458Z,16.52
2019-05-28T06:24:16.449Z,16.61
2019-05-28T06:25:16.442Z,16.76
2019-05-28T06:26:16.424Z,16.85
2019-05-28T06:27:19.284Z,17.08
2019-05-28T06:28:16.409Z,17.14
2019-05-28T06:29:16.423Z,17.23
2019-05-28T06:30:16.397Z,17.46
2019-05-28T06:31:16.373Z,17.58
2019-05-28T06:32:16.382Z,17.70
2019-05-28T06:33:16.357Z,17.75
2019-05-28T06:34:16.356Z,17.81
2019-05-28T06:35:16.333Z,17.79
2019-05-28T06:36:16.344Z,17.82
2019-05-28T06:37:16.328Z,18.05
2019-05-28T06:38:16.295Z,17.82
2019-05-28T06:39:16.314Z,17.52
2019-05-28T06:40:16.279Z,17.68
2019-05-28T06:41:16.274Z,17.95
2019-05-28T06:42:16.281Z,18.08
2019-05-28T06:43:16.254Z,18.03
2019-05-28T06:44:16.239Z,18.05
2019-05-28T06:45:16.236Z,17.84
2019-05-28T06:46:16.228Z,18.14
2019-05-28T06:47:16.225Z,18.70
2019-05-28T06:48:16.192Z,19.26
2019-05-28T06:49:16.179Z,19.46
2019-05-28T06:50:16.166Z,19.23
2019-05-28T06:51:16.165Z,19.71
2019-05-28T06:52:16.179Z,19.56
2019-05-28T06:53:16.139Z,19.74
2019-05-28T06:54:16.130Z,19.44
2019-05-28T06:55:16.112Z,19.44
2019-05-28T06:56:16.124Z,19.73
2019-05-28T06:57:22.639Z,19.51
2019-05-28T06:58:17.078Z,18.91
2019-05-28T06:59:16.078Z,18.76
2019-05-28T07:00:16.066Z,18.91
2019-05-28T07:01:16.050Z,19.32
2019-05-28T07:02:16.064Z,19.62
2019-05-28T07:03:16.025Z,19.99
2019-05-28T07:04:31.404Z,20.50
2019-05-28T07:05:17.006Z,20.80
2019-05-28T07:06:16.003Z,21.17
2019-05-28T07:07:15.998Z,21.25
2019-05-28T07:08:15.974Z,21.29
2019-05-28T07:09:15.965Z,21.50
2019-05-28T07:10:15.954Z,21.77
2019-05-28T07:11:15.949Z,21.27
2019-05-28T07:12:18.015Z,21.38
2019-05-28T07:13:15.923Z,20.80
2019-05-28T07:14:15.915Z,20.51
2019-05-28T07:15:15.916Z,20.23
2019-05-28T07:16:15.888Z,19.47
2019-05-28T07:17:15.898Z,19.04
2019-05-28T07:18:15.863Z,19.36
2019-05-28T07:19:24.695Z,19.62
2019-05-28T07:20:16.852Z,19.99
2019-05-28T07:21:15.838Z,19.99
2019-05-28T07:22:15.842Z,19.95
2019-05-28T07:23:15.826Z,20.03
2019-05-28T07:24:15.806Z,20.13
2019-05-28T07:25:15.807Z,19.98
2019-05-28T07:26:15.784Z,19.08
2019-05-28T07:27:15.788Z,18.69
2019-05-28T07:28:15.760Z,18.55
2019-05-28T07:29:15.749Z,18.25
2019-05-28T07:30:15.735Z,17.97
2019-05-28T07:31:15.733Z,17.59
2019-05-28T07:32:15.732Z,17.11
2019-05-28T07:33:15.712Z,16.79
2019-05-28T07:34:29.766Z,17.12
2019-05-28T07:35:16.681Z,17.19
2019-05-28T07:36:15.672Z,17.11
2019-05-28T07:37:15.664Z,16.93
2019-05-28T07:38:15.693Z,17.14
2019-05-28T07:39:15.640Z,17.95
2019-05-28T07:40:30.301Z,20.43
2019-05-28T07:41:16.620Z,21.22
2019-05-28T07:42:29.833Z,22.00
2019-05-28T07:43:16.617Z,22.42
2019-05-28T07:44:15.591Z,23.93
2019-05-28T07:45:15.591Z,25.43
2019-05-28T07:46:15.574Z,25.97
2019-05-28T07:47:15.553Z,26.69
2019-05-28T07:48:15.565Z,26.70
2019-05-28T07:49:15.543Z,26.30
2019-05-28T07:50:15.528Z,27.21
2019-05-28T07:51:15.522Z,28.14
2019-05-28T07:52:15.508Z,29.43
2019-05-28T07:53:15.527Z,29.52
2019-05-28T07:54:15.481Z,29.06
2019-05-28T07:55:15.479Z,28.14
2019-05-28T07:56:15.482Z,27.32
2019-05-28T07:57:15.462Z,26.51
2019-05-28T07:58:15.490Z,25.27
2019-05-28T07:59:15.431Z,24.30
2019-05-28T08:00:15.438Z,23.31
2019-05-28T08:01:15.414Z,22.37
2019-05-28T08:02:15.402Z,21.40
2019-05-28T08:03:15.416Z,20.51
2019-05-28T08:04:15.388Z,20.17
2019-05-28T08:05:17.211Z,19.87
2019-05-28T08:06:15.367Z,19.92
2019-05-28T08:07:15.349Z,19.83
2019-05-28T08:08:15.356Z,19.78
2019-05-28T08:09:15.334Z,19.51
2019-05-28T08:10:15.326Z,18.94
2019-05-28T08:11:15.337Z,18.57
2019-05-28T08:12:15.299Z,18.62
2019-05-28T08:13:15.303Z,18.66
2019-05-28T08:14:15.294Z,18.66
2019-05-28T08:15:15.270Z,18.67
2019-05-28T08:16:18.573Z,18.33
2019-05-28T08:17:15.248Z,18.30
2019-05-28T08:18:15.277Z,18.11
2019-05-28T08:19:15.221Z,17.70
2019-05-28T08:20:18.325Z,17.59
2019-05-28T08:21:15.231Z,17.66
2019-05-28T08:22:15.189Z,17.30
2019-05-28T08:23:15.206Z,17.14
2019-05-28T08:24:15.179Z,17.11
2019-05-28T08:25:27.808Z,17.31
2019-05-28T08:26:16.220Z,17.48
2019-05-28T08:27:15.144Z,17.68
2019-05-28T08:28:20.015Z,19.81
2019-05-28T08:29:16.120Z,23.02
2019-05-28T08:30:15.111Z,25.70
2019-05-28T08:31:18.845Z,25.82
2019-05-28T08:32:16.083Z,26.99
2019-05-28T08:33:15.092Z,28.27
2019-05-28T08:34:19.137Z,27.31
2019-05-28T08:35:15.063Z,24.68
2019-05-28T08:36:15.045Z,22.64
2019-05-28T08:37:15.038Z,21.12
2019-05-28T08:38:15.053Z,20.03
2019-05-28T08:39:15.012Z,19.68
2019-05-28T08:40:14.999Z,19.76
2019-05-28T08:41:14.997Z,19.51
2019-05-28T08:42:14.983Z,19.51
2019-05-28T08:43:14.984Z,19.37
2019-05-28T08:44:14.987Z,19.22
2019-05-28T08:45:14.962Z,19.28
2019-05-28T08:46:14.935Z,19.07
2019-05-28T08:47:14.932Z,18.94
2019-05-28T08:48:15.065Z,18.75
2019-05-28T08:49:14.910Z,18.57
2019-05-28T08:50:14.899Z,18.11
2019-05-28T08:51:14.884Z,17.71
2019-05-28T08:52:14.872Z,17.34
2019-05-28T08:53:14.877Z,17.41
2019-05-28T08:54:14.856Z,17.41
2019-05-28T08:55:14.848Z,17.44
2019-05-28T08:56:14.832Z,17.43
2019-05-28T08:57:14.824Z,17.28
2019-05-28T08:58:14.825Z,17.25
2019-05-28T08:59:14.806Z,17.33
2019-05-28T09:00:14.807Z,17.26
2019-05-28T09:01:14.780Z,17.37
2019-05-28T09:02:27.312Z,17.46
2019-05-28T09:03:15.770Z,17.48
2019-05-28T09:04:14.746Z,17.49
2019-05-28T09:05:25.863Z,17.41
2019-05-28T09:06:15.719Z,17.54
2019-05-28T09:07:14.750Z,17.63
2019-05-28T09:08:14.707Z,17.84
2019-05-28T09:09:14.706Z,17.71
2019-05-28T09:10:14.682Z,17.74
2019-05-28T09:11:14.740Z,17.86
2019-05-28T09:12:14.657Z,18.00
2019-05-28T09:13:14.743Z,18.51
2019-05-28T09:14:14.653Z,18.99
2019-05-28T09:15:14.619Z,19.48
2019-05-28T09:16:14.610Z,19.77
2019-05-28T09:17:14.603Z,19.98
2019-05-28T09:18:14.589Z,20.08
2019-05-28T09:19:14.600Z,20.18
2019-05-28T09:20:14.575Z,20.23
2019-05-28T09:21:14.564Z,20.29
2019-05-28T09:22:25.272Z,20.24
2019-05-28T09:23:15.536Z,20.39
2019-05-28T09:24:14.540Z,20.38
2019-05-28T09:25:14.512Z,20.35
2019-05-28T09:26:14.504Z,20.29
2019-05-28T09:27:14.494Z,20.21
2019-05-28T09:28:29.442Z,20.17
2019-05-28T09:29:15.482Z,19.98
2019-05-28T09:30:14.486Z,19.84
2019-05-28T09:31:14.453Z,19.74
2019-05-28T09:32:14.449Z,19.54
2019-05-28T09:33:14.442Z,19.25
2019-05-28T09:34:14.442Z,19.11
2019-05-28T09:35:14.409Z,19.10
2019-05-28T09:36:14.396Z,19.14
2019-05-28T09:37:14.381Z,19.31
2019-05-28T09:38:14.374Z,19.65
2019-05-28T09:39:14.383Z,19.66
2019-05-28T09:40:14.358Z,19.86
2019-05-28T09:41:14.352Z,22.40
2019-05-28T09:42:14.332Z,23.39
2019-05-28T09:43:14.338Z,23.79
2019-05-28T09:44:14.338Z,23.83
2019-05-28T09:45:22.437Z,24.78
2019-05-28T09:46:15.290Z,25.98
2019-05-28T09:47:14.281Z,27.32
2019-05-28T09:48:14.271Z,28.76
2019-05-28T09:49:14.270Z,28.40
2019-05-28T09:50:29.880Z,28.30
2019-05-28T09:51:15.255Z,28.27
2019-05-28T09:52:14.236Z,29.19
2019-05-28T09:53:14.262Z,31.04
2019-05-28T09:54:14.225Z,30.72
2019-05-28T09:55:14.222Z,30.57
2019-05-28T09:56:14.186Z,31.21
2019-05-28T09:57:14.175Z,31.99
2019-05-28T09:58:14.167Z,31.85
2019-05-28T09:59:14.186Z,32.55
2019-05-28T10:00:15.146Z,32.85
2019-05-28T10:01:14.135Z,32.41
2019-05-28T10:02:14.129Z,32.25
2019-05-28T10:03:14.115Z,32.14
2019-05-28T10:04:14.112Z,32.25
2019-05-28T10:05:14.117Z,32.57
2019-05-28T10:06:17.469Z,33.01
2019-05-28T10:07:14.108Z,33.34
2019-05-28T10:08:14.060Z,34.65
2019-05-28T10:09:14.059Z,35.25
2019-05-28T10:10:14.139Z,35.77
2019-05-28T10:11:14.034Z,35.99
2019-05-28T10:12:14.033Z,36.25
2019-05-28T10:13:14.017Z,35.66
2019-05-28T10:14:14.008Z,35.45
2019-05-28T10:15:14.011Z,35.58
2019-05-28T10:16:14.033Z,35.29
2019-05-28T10:17:14.004Z,35.53
2019-05-28T10:18:13.986Z,35.48
2019-05-28T10:19:13.963Z,34.89
2019-05-28T10:20:13.971Z,33.97
2019-05-28T10:21:18.718Z,33.32
2019-05-28T10:22:14.924Z,33.31
2019-05-28T10:23:13.917Z,32.06
2019-05-28T10:24:13.927Z,31.43
2019-05-28T10:25:14.000Z,32.13
2019-05-28T10:26:14.037Z,32.55
2019-05-28T10:27:14.209Z,31.10
2019-05-28T10:28:13.895Z,29.52
2019-05-28T10:29:13.866Z,27.07
2019-05-28T10:30:14.123Z,26.05
2019-05-28T10:31:13.841Z,25.14
2019-05-28T10:32:13.844Z,24.39
2019-05-28T10:33:13.837Z,24.24
2019-05-28T10:34:13.810Z,23.65
2019-05-28T10:35:13.826Z,23.15
2019-05-28T10:36:13.793Z,22.77
2019-05-28T10:37:13.783Z,22.51
2019-05-28T10:38:16.809Z,20.84
2019-05-28T10:39:13.777Z,20.10
2019-05-28T10:40:13.763Z,19.63
2019-05-28T10:41:13.739Z,19.43
2019-05-28T10:42:13.726Z,19.26
2019-05-28T10:43:13.737Z,19.22
2019-05-28T10:44:13.756Z,19.47
2019-05-28T10:45:13.730Z,19.66
2019-05-28T10:46:14.014Z,19.91
2019-05-28T10:47:13.672Z,20.11
2019-05-28T10:48:13.685Z,20.33
2019-05-28T10:49:13.679Z,20.31
2019-05-28T10:50:13.672Z,20.51
2019-05-28T10:51:13.631Z,20.11
2019-05-28T10:52:13.623Z,19.84
2019-05-28T10:53:13.760Z,19.76
2019-05-28T10:54:13.597Z,19.58
2019-05-28T10:55:15.970Z,19.10
2019-05-28T10:56:13.587Z,19.00
2019-05-28T10:57:13.572Z,18.63
2019-05-28T10:58:13.561Z,18.45
2019-05-28T10:59:13.544Z,18.45
2019-05-28T11:00:13.552Z,18.42
2019-05-28T11:01:13.528Z,18.35
2019-05-28T11:02:13.523Z,18.48
2019-05-28T11:03:13.507Z,18.54
2019-05-28T11:04:13.495Z,18.58
2019-05-28T11:05:13.501Z,18.63
2019-05-28T11:06:13.471Z,18.90
2019-05-28T11:07:13.467Z,19.14
2019-05-28T11:08:13.453Z,19.13
2019-05-28T11:09:13.444Z,19.18
2019-05-28T11:10:23.972Z,19.11
2019-05-28T11:11:14.429Z,19.43
2019-05-28T11:12:13.424Z,19.36
2019-05-28T11:13:13.400Z,19.18
2019-05-28T11:14:13.383Z,19.11
2019-05-28T11:15:13.375Z,19.25
2019-05-28T11:16:13.385Z,19.36
2019-05-28T11:17:13.363Z,19.48
2019-05-28T11:18:13.345Z,19.55
2019-05-28T11:19:13.335Z,19.21
2019-05-28T11:20:13.318Z,19.25
2019-05-28T11:21:13.333Z,19.28
2019-05-28T11:22:13.307Z,19.44
2019-05-28T11:23:13.288Z,19.47
2019-05-28T11:24:13.278Z,19.48
2019-05-28T11:25:13.282Z,19.25
2019-05-28T11:26:13.277Z,19.02
2019-05-28T11:27:13.247Z,18.75
2019-05-28T11:28:13.237Z,18.60
2019-05-28T11:29:13.229Z,18.41
2019-05-28T11:30:13.217Z,18.11
2019-05-28T11:31:13.224Z,18.15
2019-05-28T11:32:13.195Z,17.46
2019-05-28T11:33:17.098Z,17.34
2019-05-28T11:34:13.174Z,17.25
2019-05-28T11:35:13.183Z,17.25
2019-05-28T11:36:13.166Z,16.98
2019-05-28T11:37:13.132Z,16.88
2019-05-28T11:38:13.131Z,16.71
2019-05-28T11:39:13.119Z,16.66
2019-05-28T11:40:13.110Z,16.53
2019-05-28T11:41:13.118Z,16.39
2019-05-28T11:42:13.085Z,16.21
2019-05-28T11:43:13.073Z,15.90
2019-05-28T11:44:13.057Z,15.92
2019-05-28T11:45:14.713Z,15.84
2019-05-28T11:46:13.052Z,15.67
2019-05-28T11:47:13.032Z,15.38
2019-05-28T11:48:13.053Z,15.38
2019-05-28T11:49:13.015Z,15.36
2019-05-28T11:50:13.001Z,15.47
2019-05-28T11:51:13.005Z,15.43
2019-05-28T11:52:12.970Z,15.50
2019-05-28T11:53:12.974Z,15.31
2019-05-28T11:54:12.961Z,15.20
2019-05-28T11:55:12.948Z,15.17
2019-05-28T11:56:12.927Z,15.09
2019-05-28T11:57:12.953Z,15.02
2019-05-28T11:58:12.931Z,14.68
2019-05-28T11:59:12.903Z,14.52
2019-05-28T12:00:12.893Z,14.37
2019-05-28T12:01:12.885Z,14.61
2019-05-28T12:02:12.892Z,14.86
2019-05-28T12:03:12.855Z,15.02
2019-05-28T12:04:12.849Z,15.23
2019-05-28T12:05:12.833Z,15.43
2019-05-28T12:06:12.826Z,15.69
2019-05-28T12:07:25.625Z,15.72
2019-05-28T12:08:13.805Z,15.92
2019-05-28T12:09:12.790Z,15.67
2019-05-28T12:10:12.799Z,15.69
2019-05-28T12:11:12.785Z,16.04
2019-05-28T12:12:12.777Z,16.08
2019-05-28T12:13:12.748Z,16.45
2019-05-28T12:14:12.737Z,16.94
2019-05-28T12:15:12.724Z,17.16
2019-05-28T12:16:12.716Z,17.36
2019-05-28T12:17:12.722Z,17.59
2019-05-28T12:18:12.694Z,17.79
2019-05-28T12:19:12.682Z,17.95
2019-05-28T12:20:13.267Z,17.51
2019-05-28T12:21:12.676Z,17.52
2019-05-28T12:22:12.666Z,17.43
2019-05-28T12:23:12.638Z,17.34
2019-05-28T12:24:12.622Z,17.07
2019-05-28T12:25:12.659Z,16.89
2019-05-28T12:26:12.609Z,17.08
2019-05-28T12:27:12.608Z,16.86
2019-05-28T12:28:12.585Z,16.73
2019-05-28T12:29:12.569Z,16.83
2019-05-28T12:30:12.561Z,16.82
2019-05-28T12:31:12.558Z,17.06
2019-05-28T12:32:12.665Z,17.04
2019-05-28T12:33:12.541Z,17.12
2019-05-28T12:34:12.550Z,17.41
2019-05-28T12:35:27.160Z,17.72
2019-05-28T12:36:13.495Z,17.81
2019-05-28T12:37:12.486Z,17.58
2019-05-28T12:38:12.492Z,17.82
2019-05-28T12:39:12.469Z,17.63
2019-05-28T12:40:12.461Z,17.34
2019-05-28T12:41:12.438Z,16.82
2019-05-28T12:42:12.430Z,16.58
2019-05-28T12:43:12.438Z,16.61
2019-05-28T12:44:12.448Z,16.57
2019-05-28T12:45:12.408Z,16.64
2019-05-28T12:46:12.394Z,16.60
2019-05-28T12:47:14.852Z,16.71
2019-05-28T12:48:13.359Z,16.79
2019-05-28T12:49:12.355Z,16.91
2019-05-28T12:50:20.074Z,17.07
2019-05-28T12:51:13.342Z,17.18
2019-05-28T12:52:12.340Z,17.23